Michael S — WDE9794 — position and weather

sailwx.info

Track history (hours):
 
Tides and Currents Weather Stations Pressure Air Temp Water Temp Dewpoint Dewpoint Depression Visibility Wind Speed Wind Dir Waves Ship Positions

Michael S

More information available from US FCC via Universal Licensing System and Coast Guard Vessel Documentation Center.

Last reported at 2014-Sep-01 11:31 UTC. Time now 2014-Sep-01 13:49 UTC.
Position N 29°57' W 090°23'.

Length 33 m; draft 3 m.

Type: Towing. MMSI: 367413700.

Date/timePositionNaut miles runAvg speedWind from/ knotsBaromVisibWave heightAir tempDewpointWater temp
2014-Sep-01 11:31N 29°57' W 090°23'0 0.0
2014-Sep-01 10:31N 29°57' W 090°23'0 0.0
2014-Sep-01 09:31N 29°57' W 090°23'0 0.0
2014-Sep-01 08:31N 29°57' W 090°23'0 0.0
2014-Sep-01 07:31N 29°57' W 090°23'0 0.0
2014-Sep-01 06:31N 29°57' W 090°23'0 0.0
2014-Sep-01 05:31N 29°57' W 090°23'0 0.0
2014-Sep-01 04:31N 29°57' W 090°23'0 0.0
2014-Sep-01 03:31N 29°57' W 090°23'0 0.0
2014-Sep-01 02:31N 29°57' W 090°23'0 0.0
2014-Sep-01 01:31N 29°57' W 090°23'0 0.0
2014-Sep-01 00:31N 29°57' W 090°23'0 0.1
2014-Aug-31 23:33N 29°57' W 090°23'0 0.0
2014-Aug-31 22:33N 29°57' W 090°23'0 0.1
2014-Aug-31 21:32N 29°57' W 090°23'4 3.9
2014-Aug-31 20:29N 29°60' W 090°26'0 0.4
2014-Aug-31 19:33N 29°60' W 090°26'3 0.6
2014-Aug-31 13:33N 29°57' W 090°24'2 2.1
2014-Aug-31 12:33N 29°59' W 090°24'0 0.0
2014-Aug-31 11:33N 29°59' W 090°24'4 4.5
2014-Aug-31 10:33N 29°56' W 090°20'8 0.3
2014-Aug-30 09:20N 29°56' W 090°10'7 9.1
2014-Aug-30 08:33N 29°57' W 090°19'3 2.0
2014-Aug-30 07:04N 29°58' W 090°16'5 5.9
2014-Aug-30 06:11N 29°57' W 090°10'  
2014-Aug-22 12:03N 29°56' W 089°59'2 3.3
2014-Aug-22 11:33N 29°57' W 090°01'  
Track history (hours):
 
Tides and Currents Weather Stations Pressure Air Temp Water Temp Dewpoint Dewpoint Depression Visibility Wind Speed Wind Dir Waves Ship Positions

Michael S

More information available from US FCC via Universal Licensing System and Coast Guard Vessel Documentation Center.

Last reported at 2014-Sep-01 11:31 UTC. Time now 2014-Sep-01 13:49 UTC.
Position N 29°57' W 090°23'.

Length 33 m; draft 3 m.

Type: Towing. MMSI: 367413700.

Date/timePositionNaut miles runAvg speedWind from/ knotsBaromVisibWave heightAir tempDewpointWater temp
2014-Sep-01 11:31N 29°57' W 090°23'0 0.0
2014-Sep-01 10:31N 29°57' W 090°23'0 0.0
2014-Sep-01 09:31N 29°57' W 090°23'0 0.0
2014-Sep-01 08:31N 29°57' W 090°23'0 0.0
2014-Sep-01 07:31N 29°57' W 090°23'0 0.0
2014-Sep-01 06:31N 29°57' W 090°23'0 0.0
2014-Sep-01 05:31N 29°57' W 090°23'0 0.0
2014-Sep-01 04:31N 29°57' W 090°23'0 0.0
2014-Sep-01 03:31N 29°57' W 090°23'0 0.0
2014-Sep-01 02:31N 29°57' W 090°23'0 0.0
2014-Sep-01 01:31N 29°57' W 090°23'0 0.0
2014-Sep-01 00:31N 29°57' W 090°23'0 0.1
2014-Aug-31 23:33N 29°57' W 090°23'0 0.0
2014-Aug-31 22:33N 29°57' W 090°23'0 0.1
2014-Aug-31 21:32N 29°57' W 090°23'4 3.9
2014-Aug-31 20:29N 29°60' W 090°26'0 0.4
2014-Aug-31 19:33N 29°60' W 090°26'3 0.6
2014-Aug-31 13:33N 29°57' W 090°24'2 2.1
2014-Aug-31 12:33N 29°59' W 090°24'0 0.0
2014-Aug-31 11:33N 29°59' W 090°24'4 4.5
2014-Aug-31 10:33N 29°56' W 090°20'8 0.3
2014-Aug-30 09:20N 29°56' W 090°10'7 9.1
2014-Aug-30 08:33N 29°57' W 090°19'3 2.0
2014-Aug-30 07:04N 29°58' W 090°16'5 5.9
2014-Aug-30 06:11N 29°57' W 090°10'  
2014-Aug-22 12:03N 29°56' W 089°59'2 3.3
2014-Aug-22 11:33N 29°57' W 090°01'  

Dump ship's entire track history